Terminal Aerodrome Forecast
Issued by NWS Quad Cities IA IL

Home | Current Version | Previous Version | Text Only | Print | Product List | Glossary On
Versions: 1 2 3 4 5 6 7 8 9 10 11 12 13 14 15 16 17 18 19
836
FTUS43 KDVN 220520
TAFMLI
TAF
KMLI 220520Z 2206/2306 09006KT P6SM VCTS FEW025CB OVC035
      TEMPO 2206/2209 06020G30KT 2SM TSRA BKN025CB OVC060
     FM221500 11006KT P6SM FEW040 SCT120
     FM222200 20008KT P6SM SCT250=

USA.gov is the U.S. government's official web portal to all federal, state and local government web resources and services.